<?xml version="1.0" encoding="UTF-8" standalone="no" ?>
<gpx xmlns="http://www.topografix.com/GPX/1/1" xmlns:xsi="http://www.w3.org/2001/XMLSchema-instance" xsi:schemaLocation="http://www.topografix.com/GPX/1/1 http://www.topografix.com/GPX/1/1/gpx.xsd" version="1.1" creator="VisuGPX - https://www.visugpx.com">
  <metadata>
    <name>GTMV etape 3</name>
    <desc><![CDATA[Etape 3 de la GTMV avec départ du col de la Schleif et arrivée la ferme de Capucine]]></desc>
  </metadata>
  <trk>
    <name><![CDATA[GTMV etape 3 bis]]></name>
    <trkseg>
      <trkpt lat="48.63084" lon="7.26115">
        <ele>694</ele>
        <time>2010-08-08T10:02:30Z</time>
      </trkpt>
      <trkpt lat="48.63062" lon="7.26044">
        <ele>694</ele>
        <time>2010-08-08T10:02:55Z</time>
      </trkpt>
      <trkpt lat="48.62978" lon="7.25966">
        <ele>700</ele>
        <time>2010-08-08T10:03:32Z</time>
      </trkpt>
      <trkpt lat="48.629" lon="7.25792">
        <ele>715</ele>
        <time>2010-08-08T10:04:42Z</time>
      </trkpt>
      <trkpt lat="48.62866" lon="7.25634">
        <ele>730</ele>
        <time>2010-08-08T10:05:52Z</time>
      </trkpt>
      <trkpt lat="48.6285" lon="7.25609">
        <ele>734</ele>
        <time>2010-08-08T10:06:22Z</time>
      </trkpt>
      <trkpt lat="48.6282" lon="7.25603">
        <ele>737</ele>
        <time>2010-08-08T10:06:42Z</time>
      </trkpt>
      <trkpt lat="48.62783" lon="7.25633">
        <ele>742</ele>
        <time>2010-08-08T10:07:17Z</time>
      </trkpt>
      <trkpt lat="48.62773" lon="7.25714">
        <ele>750</ele>
        <time>2010-08-08T10:08:19Z</time>
      </trkpt>
      <trkpt lat="48.62745" lon="7.25881">
        <ele>758</ele>
        <time>2010-08-08T10:09:31Z</time>
      </trkpt>
      <trkpt lat="48.62707" lon="7.25953">
        <ele>762</ele>
        <time>2010-08-08T10:10:00Z</time>
      </trkpt>
      <trkpt lat="48.62674" lon="7.25981">
        <ele>762</ele>
        <time>2010-08-08T10:10:19Z</time>
      </trkpt>
      <trkpt lat="48.62628" lon="7.26076">
        <ele>772</ele>
        <time>2010-08-08T10:10:54Z</time>
      </trkpt>
      <trkpt lat="48.62566" lon="7.2615">
        <ele>778</ele>
        <time>2010-08-08T10:11:33Z</time>
      </trkpt>
      <trkpt lat="48.62441" lon="7.26229">
        <ele>787</ele>
        <time>2010-08-08T10:12:32Z</time>
      </trkpt>
      <trkpt lat="48.62381" lon="7.26308">
        <ele>794</ele>
        <time>2010-08-08T10:13:12Z</time>
      </trkpt>
      <trkpt lat="48.62366" lon="7.26306">
        <ele>796</ele>
        <time>2010-08-08T10:16:29Z</time>
      </trkpt>
      <trkpt lat="48.6234" lon="7.26282">
        <ele>797</ele>
        <time>2010-08-08T10:16:44Z</time>
      </trkpt>
      <trkpt lat="48.6224" lon="7.26257">
        <ele>800</ele>
        <time>2010-08-08T10:17:16Z</time>
      </trkpt>
      <trkpt lat="48.62137" lon="7.26292">
        <ele>795</ele>
        <time>2010-08-08T10:17:48Z</time>
      </trkpt>
      <trkpt lat="48.621" lon="7.26331">
        <ele>798</ele>
        <time>2010-08-08T10:18:06Z</time>
      </trkpt>
      <trkpt lat="48.62049" lon="7.26317">
        <ele>799</ele>
        <time>2010-08-08T10:18:25Z</time>
      </trkpt>
      <trkpt lat="48.6204" lon="7.2634">
        <ele>803</ele>
        <time>2010-08-08T10:18:47Z</time>
      </trkpt>
      <trkpt lat="48.62064" lon="7.26391">
        <ele>805</ele>
        <time>2010-08-08T10:19:30Z</time>
      </trkpt>
      <trkpt lat="48.62083" lon="7.26326">
        <ele>802</ele>
        <time>2010-08-08T10:25:31Z</time>
      </trkpt>
      <trkpt lat="48.6202" lon="7.26308">
        <ele>803</ele>
        <time>2010-08-08T10:25:58Z</time>
      </trkpt>
      <trkpt lat="48.61996" lon="7.26264">
        <ele>801</ele>
        <time>2010-08-08T10:26:10Z</time>
      </trkpt>
      <trkpt lat="48.61973" lon="7.26249">
        <ele>800</ele>
        <time>2010-08-08T10:26:16Z</time>
      </trkpt>
      <trkpt lat="48.6189" lon="7.26169">
        <ele>786</ele>
        <time>2010-08-08T10:26:50Z</time>
      </trkpt>
      <trkpt lat="48.61869" lon="7.26234">
        <ele>786</ele>
        <time>2010-08-08T10:27:11Z</time>
      </trkpt>
      <trkpt lat="48.6186" lon="7.26227">
        <ele>786</ele>
        <time>2010-08-08T10:27:17Z</time>
      </trkpt>
      <trkpt lat="48.6184" lon="7.26231">
        <ele>783</ele>
        <time>2010-08-08T10:27:30Z</time>
      </trkpt>
      <trkpt lat="48.61723" lon="7.26037">
        <ele>780</ele>
        <time>2010-08-08T10:28:44Z</time>
      </trkpt>
      <trkpt lat="48.61677" lon="7.25998">
        <ele>783</ele>
        <time>2010-08-08T10:28:54Z</time>
      </trkpt>
      <trkpt lat="48.61587" lon="7.25968">
        <ele>784</ele>
        <time>2010-08-08T10:29:10Z</time>
      </trkpt>
      <trkpt lat="48.61512" lon="7.25925">
        <ele>783</ele>
        <time>2010-08-08T10:29:24Z</time>
      </trkpt>
      <trkpt lat="48.61466" lon="7.25894">
        <ele>774</ele>
        <time>2010-08-08T10:29:36Z</time>
      </trkpt>
      <trkpt lat="48.61459" lon="7.25894">
        <ele>771</ele>
        <time>2010-08-08T10:29:39Z</time>
      </trkpt>
      <trkpt lat="48.6145" lon="7.2598">
        <ele>762</ele>
        <time>2010-08-08T10:29:50Z</time>
      </trkpt>
      <trkpt lat="48.61413" lon="7.26038">
        <ele>757</ele>
        <time>2010-08-08T10:29:59Z</time>
      </trkpt>
      <trkpt lat="48.61404" lon="7.26083">
        <ele>752</ele>
        <time>2010-08-08T10:30:06Z</time>
      </trkpt>
      <trkpt lat="48.61405" lon="7.2619">
        <ele>738</ele>
        <time>2010-08-08T10:30:19Z</time>
      </trkpt>
      <trkpt lat="48.61443" lon="7.26261">
        <ele>728</ele>
        <time>2010-08-08T10:30:28Z</time>
      </trkpt>
      <trkpt lat="48.6148" lon="7.26209">
        <ele>722</ele>
        <time>2010-08-08T10:30:43Z</time>
      </trkpt>
      <trkpt lat="48.61506" lon="7.26239">
        <ele>712</ele>
        <time>2010-08-08T10:30:53Z</time>
      </trkpt>
      <trkpt lat="48.61484" lon="7.26294">
        <ele>708</ele>
        <time>2010-08-08T10:31:10Z</time>
      </trkpt>
      <trkpt lat="48.61474" lon="7.2635">
        <ele>700</ele>
        <time>2010-08-08T10:31:24Z</time>
      </trkpt>
      <trkpt lat="48.61511" lon="7.266">
        <ele>694</ele>
        <time>2010-08-08T10:31:57Z</time>
      </trkpt>
      <trkpt lat="48.61503" lon="7.26667">
        <ele>687</ele>
        <time>2010-08-08T10:32:07Z</time>
      </trkpt>
      <trkpt lat="48.61403" lon="7.26653">
        <ele>674</ele>
        <time>2010-08-08T10:32:37Z</time>
      </trkpt>
      <trkpt lat="48.61375" lon="7.26669">
        <ele>670</ele>
        <time>2010-08-08T10:32:46Z</time>
      </trkpt>
      <trkpt lat="48.61328" lon="7.26741">
        <ele>664</ele>
        <time>2010-08-08T10:33:07Z</time>
      </trkpt>
      <trkpt lat="48.61316" lon="7.26791">
        <ele>661</ele>
        <time>2010-08-08T10:33:18Z</time>
      </trkpt>
      <trkpt lat="48.61286" lon="7.26871">
        <ele>652</ele>
        <time>2010-08-08T10:33:30Z</time>
      </trkpt>
      <trkpt lat="48.61231" lon="7.26904">
        <ele>640</ele>
        <time>2010-08-08T10:33:42Z</time>
      </trkpt>
      <trkpt lat="48.61062" lon="7.2681">
        <ele>627</ele>
        <time>2010-08-08T10:35:46Z</time>
      </trkpt>
      <trkpt lat="48.61015" lon="7.26804">
        <ele>628</ele>
        <time>2010-08-08T10:36:07Z</time>
      </trkpt>
      <trkpt lat="48.60978" lon="7.26826">
        <ele>630</ele>
        <time>2010-08-08T10:36:32Z</time>
      </trkpt>
      <trkpt lat="48.60969" lon="7.26835">
        <ele>627</ele>
        <time>2010-08-08T10:39:31Z</time>
      </trkpt>
      <trkpt lat="48.61026" lon="7.26895">
        <ele>632</ele>
        <time>2010-08-08T10:39:52Z</time>
      </trkpt>
      <trkpt lat="48.61022" lon="7.26903">
        <ele>632</ele>
        <time>2010-08-08T10:39:58Z</time>
      </trkpt>
      <trkpt lat="48.60957" lon="7.26876">
        <ele>646</ele>
        <time>2010-08-08T10:40:32Z</time>
      </trkpt>
      <trkpt lat="48.60886" lon="7.26884">
        <ele>644</ele>
        <time>2010-08-08T10:41:00Z</time>
      </trkpt>
      <trkpt lat="48.60758" lon="7.26987">
        <ele>653</ele>
        <time>2010-08-08T10:41:51Z</time>
      </trkpt>
      <trkpt lat="48.60746" lon="7.26952">
        <ele>653</ele>
        <time>2010-08-08T10:42:00Z</time>
      </trkpt>
      <trkpt lat="48.60836" lon="7.26744">
        <ele>669</ele>
        <time>2010-08-08T10:42:52Z</time>
      </trkpt>
      <trkpt lat="48.60833" lon="7.26705">
        <ele>680</ele>
        <time>2010-08-08T10:43:04Z</time>
      </trkpt>
      <trkpt lat="48.6081" lon="7.26655">
        <ele>691</ele>
        <time>2010-08-08T10:43:18Z</time>
      </trkpt>
      <trkpt lat="48.60799" lon="7.26633">
        <ele>693</ele>
        <time>2010-08-08T10:43:25Z</time>
      </trkpt>
      <trkpt lat="48.60779" lon="7.26594">
        <ele>696</ele>
        <time>2010-08-08T10:43:37Z</time>
      </trkpt>
      <trkpt lat="48.6071" lon="7.26504">
        <ele>702</ele>
        <time>2010-08-08T10:44:33Z</time>
      </trkpt>
      <trkpt lat="48.60581" lon="7.26415">
        <ele>708</ele>
        <time>2010-08-08T10:46:00Z</time>
      </trkpt>
      <trkpt lat="48.6056" lon="7.26406">
        <ele>713</ele>
        <time>2010-08-08T10:46:11Z</time>
      </trkpt>
      <trkpt lat="48.60523" lon="7.26389">
        <ele>718</ele>
        <time>2010-08-08T10:46:31Z</time>
      </trkpt>
      <trkpt lat="48.60504" lon="7.26379">
        <ele>717</ele>
        <time>2010-08-08T10:46:41Z</time>
      </trkpt>
      <trkpt lat="48.60463" lon="7.26362">
        <ele>724</ele>
        <time>2010-08-08T10:47:02Z</time>
      </trkpt>
      <trkpt lat="48.60409" lon="7.26377">
        <ele>732</ele>
        <time>2010-08-08T10:47:38Z</time>
      </trkpt>
      <trkpt lat="48.60348" lon="7.26383">
        <ele>730</ele>
        <time>2010-08-08T10:48:04Z</time>
      </trkpt>
      <trkpt lat="48.60309" lon="7.26362">
        <ele>729</ele>
        <time>2010-08-08T10:48:23Z</time>
      </trkpt>
      <trkpt lat="48.60341" lon="7.26296">
        <ele>736</ele>
        <time>2010-08-08T10:48:48Z</time>
      </trkpt>
      <trkpt lat="48.60348" lon="7.26239">
        <ele>738</ele>
        <time>2010-08-08T10:49:04Z</time>
      </trkpt>
      <trkpt lat="48.60256" lon="7.25985">
        <ele>756</ele>
        <time>2010-08-08T10:50:24Z</time>
      </trkpt>
      <trkpt lat="48.6024" lon="7.25949">
        <ele>758</ele>
        <time>2010-08-08T10:50:36Z</time>
      </trkpt>
      <trkpt lat="48.6022" lon="7.25904">
        <ele>758</ele>
        <time>2010-08-08T10:50:52Z</time>
      </trkpt>
      <trkpt lat="48.60154" lon="7.2582">
        <ele>759</ele>
        <time>2010-08-08T10:51:28Z</time>
      </trkpt>
      <trkpt lat="48.60089" lon="7.25743">
        <ele>756</ele>
        <time>2010-08-08T10:52:02Z</time>
      </trkpt>
      <trkpt lat="48.60047" lon="7.25711">
        <ele>758</ele>
        <time>2010-08-08T10:52:24Z</time>
      </trkpt>
      <trkpt lat="48.60045" lon="7.25694">
        <ele>758</ele>
        <time>2010-08-08T10:53:46Z</time>
      </trkpt>
      <trkpt lat="48.60029" lon="7.25675">
        <ele>753</ele>
        <time>2010-08-08T10:56:51Z</time>
      </trkpt>
      <trkpt lat="48.60036" lon="7.25685">
        <ele>760</ele>
        <time>2010-08-08T13:02:33Z</time>
      </trkpt>
      <trkpt lat="48.60035" lon="7.25684">
        <ele>756</ele>
        <time>2010-08-08T13:02:43Z</time>
      </trkpt>
      <trkpt lat="48.60039" lon="7.25686">
        <ele>752</ele>
        <time>2010-08-08T13:02:53Z</time>
      </trkpt>
      <trkpt lat="48.6004" lon="7.25715">
        <ele>754</ele>
        <time>2010-08-08T13:03:11Z</time>
      </trkpt>
      <trkpt lat="48.59996" lon="7.2569">
        <ele>762</ele>
        <time>2010-08-08T13:03:44Z</time>
      </trkpt>
      <trkpt lat="48.59964" lon="7.25679">
        <ele>763</ele>
        <time>2010-08-08T13:03:54Z</time>
      </trkpt>
      <trkpt lat="48.59872" lon="7.25698">
        <ele>765</ele>
        <time>2010-08-08T13:04:27Z</time>
      </trkpt>
      <trkpt lat="48.59737" lon="7.25694">
        <ele>773</ele>
        <time>2010-08-08T13:05:24Z</time>
      </trkpt>
      <trkpt lat="48.59713" lon="7.25662">
        <ele>774</ele>
        <time>2010-08-08T13:05:38Z</time>
      </trkpt>
      <trkpt lat="48.59978" lon="7.25489">
        <ele>784</ele>
        <time>2010-08-08T13:07:08Z</time>
      </trkpt>
      <trkpt lat="48.60118" lon="7.25489">
        <ele>803</ele>
        <time>2010-08-08T13:07:55Z</time>
      </trkpt>
      <trkpt lat="48.60141" lon="7.2549">
        <ele>804</ele>
        <time>2010-08-08T13:08:03Z</time>
      </trkpt>
      <trkpt lat="48.60258" lon="7.2552">
        <ele>804</ele>
        <time>2010-08-08T13:08:39Z</time>
      </trkpt>
      <trkpt lat="48.60298" lon="7.25503">
        <ele>807</ele>
        <time>2010-08-08T13:08:52Z</time>
      </trkpt>
      <trkpt lat="48.60323" lon="7.25475">
        <ele>804</ele>
        <time>2010-08-08T13:09:02Z</time>
      </trkpt>
      <trkpt lat="48.60324" lon="7.25346">
        <ele>802</ele>
        <time>2010-08-08T13:09:28Z</time>
      </trkpt>
      <trkpt lat="48.60321" lon="7.25322">
        <ele>801</ele>
        <time>2010-08-08T13:09:34Z</time>
      </trkpt>
      <trkpt lat="48.60266" lon="7.25232">
        <ele>819</ele>
        <time>2010-08-08T13:10:24Z</time>
      </trkpt>
      <trkpt lat="48.60219" lon="7.25195">
        <ele>825</ele>
        <time>2010-08-08T13:10:45Z</time>
      </trkpt>
      <trkpt lat="48.60201" lon="7.25184">
        <ele>825</ele>
        <time>2010-08-08T13:10:52Z</time>
      </trkpt>
      <trkpt lat="48.60121" lon="7.25161">
        <ele>833</ele>
        <time>2010-08-08T13:11:28Z</time>
      </trkpt>
      <trkpt lat="48.5997" lon="7.25178">
        <ele>842</ele>
        <time>2010-08-08T13:12:36Z</time>
      </trkpt>
      <trkpt lat="48.59926" lon="7.25192">
        <ele>846</ele>
        <time>2010-08-08T13:12:59Z</time>
      </trkpt>
      <trkpt lat="48.59863" lon="7.2524">
        <ele>844</ele>
        <time>2010-08-08T13:13:30Z</time>
      </trkpt>
      <trkpt lat="48.59674" lon="7.25318">
        <ele>860</ele>
        <time>2010-08-08T13:15:15Z</time>
      </trkpt>
      <trkpt lat="48.59615" lon="7.25285">
        <ele>870</ele>
        <time>2010-08-08T13:16:10Z</time>
      </trkpt>
      <trkpt lat="48.59546" lon="7.25167">
        <ele>886</ele>
        <time>2010-08-08T13:18:23Z</time>
      </trkpt>
      <trkpt lat="48.59503" lon="7.25086">
        <ele>890</ele>
        <time>2010-08-08T13:19:34Z</time>
      </trkpt>
      <trkpt lat="48.59477" lon="7.25091">
        <ele>898</ele>
        <time>2010-08-08T13:20:15Z</time>
      </trkpt>
      <trkpt lat="48.59458" lon="7.25089">
        <ele>900</ele>
        <time>2010-08-08T13:24:29Z</time>
      </trkpt>
      <trkpt lat="48.59424" lon="7.25155">
        <ele>905</ele>
        <time>2010-08-08T13:25:08Z</time>
      </trkpt>
      <trkpt lat="48.59382" lon="7.2516">
        <ele>909</ele>
        <time>2010-08-08T13:25:22Z</time>
      </trkpt>
      <trkpt lat="48.59354" lon="7.25137">
        <ele>911</ele>
        <time>2010-08-08T13:25:36Z</time>
      </trkpt>
      <trkpt lat="48.59317" lon="7.25103">
        <ele>912</ele>
        <time>2010-08-08T13:25:46Z</time>
      </trkpt>
      <trkpt lat="48.5926" lon="7.25034">
        <ele>911</ele>
        <time>2010-08-08T13:25:59Z</time>
      </trkpt>
      <trkpt lat="48.59201" lon="7.24999">
        <ele>904</ele>
        <time>2010-08-08T13:26:48Z</time>
      </trkpt>
      <trkpt lat="48.59143" lon="7.24987">
        <ele>895</ele>
        <time>2010-08-08T13:28:55Z</time>
      </trkpt>
      <trkpt lat="48.59078" lon="7.24917">
        <ele>886</ele>
        <time>2010-08-08T13:29:08Z</time>
      </trkpt>
      <trkpt lat="48.59007" lon="7.24887">
        <ele>880</ele>
        <time>2010-08-08T13:29:19Z</time>
      </trkpt>
      <trkpt lat="48.5897" lon="7.2489">
        <ele>878</ele>
        <time>2010-08-08T13:29:24Z</time>
      </trkpt>
      <trkpt lat="48.58938" lon="7.24933">
        <ele>876</ele>
        <time>2010-08-08T13:29:30Z</time>
      </trkpt>
      <trkpt lat="48.58905" lon="7.25091">
        <ele>871</ele>
        <time>2010-08-08T13:29:45Z</time>
      </trkpt>
      <trkpt lat="48.58882" lon="7.25114">
        <ele>870</ele>
        <time>2010-08-08T13:29:49Z</time>
      </trkpt>
      <trkpt lat="48.58829" lon="7.25132">
        <ele>868</ele>
        <time>2010-08-08T13:29:57Z</time>
      </trkpt>
      <trkpt lat="48.58786" lon="7.25119">
        <ele>868</ele>
        <time>2010-08-08T13:30:02Z</time>
      </trkpt>
      <trkpt lat="48.5866" lon="7.25045">
        <ele>868</ele>
        <time>2010-08-08T13:30:18Z</time>
      </trkpt>
      <trkpt lat="48.58581" lon="7.24969">
        <ele>869</ele>
        <time>2010-08-08T13:30:30Z</time>
      </trkpt>
      <trkpt lat="48.58552" lon="7.24918">
        <ele>870</ele>
        <time>2010-08-08T13:30:35Z</time>
      </trkpt>
      <trkpt lat="48.58524" lon="7.24791">
        <ele>871</ele>
        <time>2010-08-08T13:30:46Z</time>
      </trkpt>
      <trkpt lat="48.58481" lon="7.24683">
        <ele>871</ele>
        <time>2010-08-08T13:30:56Z</time>
      </trkpt>
      <trkpt lat="48.5842" lon="7.246">
        <ele>864</ele>
        <time>2010-08-08T13:31:07Z</time>
      </trkpt>
      <trkpt lat="48.58241" lon="7.24492">
        <ele>858</ele>
        <time>2010-08-08T13:31:31Z</time>
      </trkpt>
      <trkpt lat="48.58188" lon="7.24433">
        <ele>858</ele>
        <time>2010-08-08T13:31:40Z</time>
      </trkpt>
      <trkpt lat="48.58094" lon="7.24376">
        <ele>854</ele>
        <time>2010-08-08T13:31:52Z</time>
      </trkpt>
      <trkpt lat="48.57973" lon="7.24342">
        <ele>849</ele>
        <time>2010-08-08T13:32:08Z</time>
      </trkpt>
      <trkpt lat="48.5788" lon="7.24259">
        <ele>848</ele>
        <time>2010-08-08T13:32:24Z</time>
      </trkpt>
      <trkpt lat="48.57814" lon="7.24174">
        <ele>844</ele>
        <time>2010-08-08T13:32:35Z</time>
      </trkpt>
      <trkpt lat="48.57769" lon="7.2416">
        <ele>842</ele>
        <time>2010-08-08T13:32:41Z</time>
      </trkpt>
      <trkpt lat="48.57602" lon="7.24185">
        <ele>835</ele>
        <time>2010-08-08T13:33:03Z</time>
      </trkpt>
      <trkpt lat="48.57574" lon="7.2418">
        <ele>833</ele>
        <time>2010-08-08T13:33:07Z</time>
      </trkpt>
      <trkpt lat="48.57394" lon="7.24094">
        <ele>818</ele>
        <time>2010-08-08T13:33:33Z</time>
      </trkpt>
      <trkpt lat="48.57334" lon="7.23987">
        <ele>816</ele>
        <time>2010-08-08T13:33:46Z</time>
      </trkpt>
      <trkpt lat="48.57253" lon="7.23888">
        <ele>817</ele>
        <time>2010-08-08T13:34:02Z</time>
      </trkpt>
      <trkpt lat="48.57066" lon="7.23705">
        <ele>812</ele>
        <time>2010-08-08T13:34:37Z</time>
      </trkpt>
      <trkpt lat="48.56949" lon="7.23408">
        <ele>818</ele>
        <time>2010-08-08T13:36:20Z</time>
      </trkpt>
      <trkpt lat="48.56959" lon="7.23171">
        <ele>822</ele>
        <time>2010-08-08T13:37:02Z</time>
      </trkpt>
      <trkpt lat="48.56939" lon="7.2307">
        <ele>825</ele>
        <time>2010-08-08T13:37:21Z</time>
      </trkpt>
      <trkpt lat="48.56797" lon="7.22722">
        <ele>832</ele>
        <time>2010-08-08T13:38:35Z</time>
      </trkpt>
      <trkpt lat="48.56711" lon="7.22594">
        <ele>837</ele>
        <time>2010-08-08T13:39:10Z</time>
      </trkpt>
      <trkpt lat="48.56624" lon="7.22514">
        <ele>845</ele>
        <time>2010-08-08T13:39:41Z</time>
      </trkpt>
      <trkpt lat="48.56574" lon="7.22454">
        <ele>852</ele>
        <time>2010-08-08T13:40:01Z</time>
      </trkpt>
      <trkpt lat="48.56524" lon="7.22344">
        <ele>861</ele>
        <time>2010-08-08T13:40:26Z</time>
      </trkpt>
      <trkpt lat="48.56475" lon="7.22248">
        <ele>865</ele>
        <time>2010-08-08T13:40:44Z</time>
      </trkpt>
      <trkpt lat="48.56452" lon="7.22207">
        <ele>865</ele>
        <time>2010-08-08T13:40:49Z</time>
      </trkpt>
      <trkpt lat="48.56472" lon="7.22164">
        <ele>863</ele>
        <time>2010-08-08T13:41:00Z</time>
      </trkpt>
      <trkpt lat="48.56519" lon="7.22185">
        <ele>862</ele>
        <time>2010-08-08T13:41:12Z</time>
      </trkpt>
      <trkpt lat="48.56573" lon="7.22241">
        <ele>862</ele>
        <time>2010-08-08T13:41:31Z</time>
      </trkpt>
      <trkpt lat="48.56661" lon="7.2227">
        <ele>858</ele>
        <time>2010-08-08T13:41:55Z</time>
      </trkpt>
      <trkpt lat="48.56739" lon="7.2226">
        <ele>861</ele>
        <time>2010-08-08T13:42:12Z</time>
      </trkpt>
      <trkpt lat="48.56824" lon="7.222">
        <ele>865</ele>
        <time>2010-08-08T13:42:34Z</time>
      </trkpt>
      <trkpt lat="48.56873" lon="7.22159">
        <ele>859</ele>
        <time>2010-08-08T13:42:47Z</time>
      </trkpt>
      <trkpt lat="48.56874" lon="7.22129">
        <ele>857</ele>
        <time>2010-08-08T13:42:53Z</time>
      </trkpt>
      <trkpt lat="48.56846" lon="7.22072">
        <ele>854</ele>
        <time>2010-08-08T13:43:03Z</time>
      </trkpt>
      <trkpt lat="48.56771" lon="7.2197">
        <ele>853</ele>
        <time>2010-08-08T13:43:24Z</time>
      </trkpt>
      <trkpt lat="48.56731" lon="7.21872">
        <ele>852</ele>
        <time>2010-08-08T13:43:40Z</time>
      </trkpt>
      <trkpt lat="48.56691" lon="7.21608">
        <ele>849</ele>
        <time>2010-08-08T13:44:20Z</time>
      </trkpt>
      <trkpt lat="48.56662" lon="7.21509">
        <ele>853</ele>
        <time>2010-08-08T13:44:37Z</time>
      </trkpt>
      <trkpt lat="48.56607" lon="7.21268">
        <ele>854</ele>
        <time>2010-08-08T13:45:07Z</time>
      </trkpt>
      <trkpt lat="48.56564" lon="7.2106">
        <ele>848</ele>
        <time>2010-08-08T13:45:31Z</time>
      </trkpt>
      <trkpt lat="48.56489" lon="7.20946">
        <ele>844</ele>
        <time>2010-08-08T13:45:47Z</time>
      </trkpt>
      <trkpt lat="48.56466" lon="7.20932">
        <ele>843</ele>
        <time>2010-08-08T13:45:51Z</time>
      </trkpt>
      <trkpt lat="48.56235" lon="7.20938">
        <ele>844</ele>
        <time>2010-08-08T13:46:29Z</time>
      </trkpt>
      <trkpt lat="48.56083" lon="7.20952">
        <ele>842</ele>
        <time>2010-08-08T13:47:00Z</time>
      </trkpt>
      <trkpt lat="48.55974" lon="7.21015">
        <ele>842</ele>
        <time>2010-08-08T13:47:27Z</time>
      </trkpt>
      <trkpt lat="48.55934" lon="7.21067">
        <ele>844</ele>
        <time>2010-08-08T13:47:42Z</time>
      </trkpt>
      <trkpt lat="48.55915" lon="7.21115">
        <ele>847</ele>
        <time>2010-08-08T13:47:55Z</time>
      </trkpt>
      <trkpt lat="48.55879" lon="7.21212">
        <ele>846</ele>
        <time>2010-08-08T13:50:07Z</time>
      </trkpt>
      <trkpt lat="48.55826" lon="7.21273">
        <ele>848</ele>
        <time>2010-08-08T13:50:37Z</time>
      </trkpt>
      <trkpt lat="48.55803" lon="7.21231">
        <ele>847</ele>
        <time>2010-08-08T13:51:57Z</time>
      </trkpt>
      <trkpt lat="48.55796" lon="7.21159">
        <ele>847</ele>
        <time>2010-08-08T13:52:21Z</time>
      </trkpt>
      <trkpt lat="48.55767" lon="7.21092">
        <ele>849</ele>
        <time>2010-08-08T13:52:31Z</time>
      </trkpt>
      <trkpt lat="48.5572" lon="7.2106">
        <ele>848</ele>
        <time>2010-08-08T13:52:42Z</time>
      </trkpt>
      <trkpt lat="48.55706" lon="7.21024">
        <ele>847</ele>
        <time>2010-08-08T13:52:49Z</time>
      </trkpt>
      <trkpt lat="48.55784" lon="7.20901">
        <ele>846</ele>
        <time>2010-08-08T13:53:14Z</time>
      </trkpt>
      <trkpt lat="48.55795" lon="7.20777">
        <ele>846</ele>
        <time>2010-08-08T13:53:31Z</time>
      </trkpt>
      <trkpt lat="48.55777" lon="7.20703">
        <ele>841</ele>
        <time>2010-08-08T13:53:41Z</time>
      </trkpt>
      <trkpt lat="48.55744" lon="7.20647">
        <ele>840</ele>
        <time>2010-08-08T13:53:55Z</time>
      </trkpt>
      <trkpt lat="48.55747" lon="7.20652">
        <ele>842</ele>
        <time>2010-08-08T13:54:05Z</time>
      </trkpt>
      <trkpt lat="48.5577" lon="7.20691">
        <ele>844</ele>
        <time>2010-08-08T13:54:21Z</time>
      </trkpt>
      <trkpt lat="48.55762" lon="7.207">
        <ele>846</ele>
        <time>2010-08-08T13:54:28Z</time>
      </trkpt>
      <trkpt lat="48.55729" lon="7.20695">
        <ele>848</ele>
        <time>2010-08-08T13:54:43Z</time>
      </trkpt>
      <trkpt lat="48.55519" lon="7.20636">
        <ele>861</ele>
        <time>2010-08-08T13:56:31Z</time>
      </trkpt>
      <trkpt lat="48.5545" lon="7.20571">
        <ele>873</ele>
        <time>2010-08-08T13:57:20Z</time>
      </trkpt>
      <trkpt lat="48.55418" lon="7.20495">
        <ele>881</ele>
        <time>2010-08-08T13:57:58Z</time>
      </trkpt>
      <trkpt lat="48.55403" lon="7.20293">
        <ele>881</ele>
        <time>2010-08-08T14:01:35Z</time>
      </trkpt>
      <trkpt lat="48.55372" lon="7.20193">
        <ele>885</ele>
        <time>2010-08-08T14:02:07Z</time>
      </trkpt>
      <trkpt lat="48.55356" lon="7.20134">
        <ele>884</ele>
        <time>2010-08-08T14:02:21Z</time>
      </trkpt>
      <trkpt lat="48.55297" lon="7.20025">
        <ele>893</ele>
        <time>2010-08-08T14:03:59Z</time>
      </trkpt>
      <trkpt lat="48.55248" lon="7.19923">
        <ele>891</ele>
        <time>2010-08-08T14:04:41Z</time>
      </trkpt>
      <trkpt lat="48.55194" lon="7.19871">
        <ele>891</ele>
        <time>2010-08-08T14:05:39Z</time>
      </trkpt>
      <trkpt lat="48.55126" lon="7.19695">
        <ele>901</ele>
        <time>2010-08-08T14:06:47Z</time>
      </trkpt>
      <trkpt lat="48.551" lon="7.1968">
        <ele>899</ele>
        <time>2010-08-08T14:06:58Z</time>
      </trkpt>
      <trkpt lat="48.55073" lon="7.19624">
        <ele>900</ele>
        <time>2010-08-08T14:07:37Z</time>
      </trkpt>
      <trkpt lat="48.55062" lon="7.19565">
        <ele>898</ele>
        <time>2010-08-08T14:07:52Z</time>
      </trkpt>
      <trkpt lat="48.54997" lon="7.19458">
        <ele>897</ele>
        <time>2010-08-08T14:08:41Z</time>
      </trkpt>
      <trkpt lat="48.5497" lon="7.19421">
        <ele>891</ele>
        <time>2010-08-08T14:09:11Z</time>
      </trkpt>
      <trkpt lat="48.54976" lon="7.19411">
        <ele>893</ele>
        <time>2010-08-08T14:09:29Z</time>
      </trkpt>
      <trkpt lat="48.54978" lon="7.19399">
        <ele>891</ele>
        <time>2010-08-08T14:09:43Z</time>
      </trkpt>
      <trkpt lat="48.54961" lon="7.19353">
        <ele>887</ele>
        <time>2010-08-08T14:10:09Z</time>
      </trkpt>
      <trkpt lat="48.54887" lon="7.19261">
        <ele>880</ele>
        <time>2010-08-08T14:10:48Z</time>
      </trkpt>
      <trkpt lat="48.54867" lon="7.19234">
        <ele>870</ele>
        <time>2010-08-08T14:11:09Z</time>
      </trkpt>
      <trkpt lat="48.54813" lon="7.19186">
        <ele>851</ele>
        <time>2010-08-08T14:12:07Z</time>
      </trkpt>
      <trkpt lat="48.54632" lon="7.19093">
        <ele>781</ele>
        <time>2010-08-08T14:15:40Z</time>
      </trkpt>
      <trkpt lat="48.54617" lon="7.19091">
        <ele>773</ele>
        <time>2010-08-08T14:16:08Z</time>
      </trkpt>
      <trkpt lat="48.54539" lon="7.19039">
        <ele>749</ele>
        <time>2010-08-08T14:16:31Z</time>
      </trkpt>
      <trkpt lat="48.54519" lon="7.19003">
        <ele>745</ele>
        <time>2010-08-08T14:16:38Z</time>
      </trkpt>
      <trkpt lat="48.54376" lon="7.19123">
        <ele>738</ele>
        <time>2010-08-08T14:18:18Z</time>
      </trkpt>
      <trkpt lat="48.54282" lon="7.19164">
        <ele>738</ele>
        <time>2010-08-08T14:18:41Z</time>
      </trkpt>
      <trkpt lat="48.54181" lon="7.19171">
        <ele>737</ele>
        <time>2010-08-08T14:19:05Z</time>
      </trkpt>
      <trkpt lat="48.54096" lon="7.19173">
        <ele>735</ele>
        <time>2010-08-08T14:19:20Z</time>
      </trkpt>
      <trkpt lat="48.54036" lon="7.1914">
        <ele>731</ele>
        <time>2010-08-08T14:19:35Z</time>
      </trkpt>
      <trkpt lat="48.53828" lon="7.18938">
        <ele>728</ele>
        <time>2010-08-08T14:20:24Z</time>
      </trkpt>
      <trkpt lat="48.53726" lon="7.18907">
        <ele>730</ele>
        <time>2010-08-08T14:20:44Z</time>
      </trkpt>
      <trkpt lat="48.53668" lon="7.18884">
        <ele>729</ele>
        <time>2010-08-08T14:20:57Z</time>
      </trkpt>
      <trkpt lat="48.53655" lon="7.18875">
        <ele>728</ele>
        <time>2010-08-08T14:21:00Z</time>
      </trkpt>
      <trkpt lat="48.53615" lon="7.18828">
        <ele>723</ele>
        <time>2010-08-08T14:21:12Z</time>
      </trkpt>
      <trkpt lat="48.5359" lon="7.18762">
        <ele>723</ele>
        <time>2010-08-08T14:21:23Z</time>
      </trkpt>
      <trkpt lat="48.53568" lon="7.18659">
        <ele>725</ele>
        <time>2010-08-08T14:21:40Z</time>
      </trkpt>
      <trkpt lat="48.5354" lon="7.18542">
        <ele>724</ele>
        <time>2010-08-08T14:21:57Z</time>
      </trkpt>
      <trkpt lat="48.53521" lon="7.1847">
        <ele>720</ele>
        <time>2010-08-08T14:22:09Z</time>
      </trkpt>
      <trkpt lat="48.5347" lon="7.18368">
        <ele>711</ele>
        <time>2010-08-08T14:22:26Z</time>
      </trkpt>
      <trkpt lat="48.53415" lon="7.18297">
        <ele>697</ele>
        <time>2010-08-08T14:22:43Z</time>
      </trkpt>
      <trkpt lat="48.53337" lon="7.18124">
        <ele>697</ele>
        <time>2010-08-08T14:23:12Z</time>
      </trkpt>
      <trkpt lat="48.53294" lon="7.17951">
        <ele>706</ele>
        <time>2010-08-08T14:23:39Z</time>
      </trkpt>
      <trkpt lat="48.53134" lon="7.17495">
        <ele>720</ele>
        <time>2010-08-08T14:24:49Z</time>
      </trkpt>
      <trkpt lat="48.53095" lon="7.17309">
        <ele>734</ele>
        <time>2010-08-08T14:26:27Z</time>
      </trkpt>
      <trkpt lat="48.5309" lon="7.17266">
        <ele>734</ele>
        <time>2010-08-08T14:26:42Z</time>
      </trkpt>
      <trkpt lat="48.53062" lon="7.17189">
        <ele>729</ele>
        <time>2010-08-08T14:27:11Z</time>
      </trkpt>
      <trkpt lat="48.53038" lon="7.1708">
        <ele>718</ele>
        <time>2010-08-08T14:27:51Z</time>
      </trkpt>
      <trkpt lat="48.52976" lon="7.17011">
        <ele>749</ele>
        <time>2010-08-08T14:28:28Z</time>
      </trkpt>
      <trkpt lat="48.52947" lon="7.16987">
        <ele>756</ele>
        <time>2010-08-08T14:28:44Z</time>
      </trkpt>
      <trkpt lat="48.52913" lon="7.16963">
        <ele>764</ele>
        <time>2010-08-08T14:29:04Z</time>
      </trkpt>
      <trkpt lat="48.5288" lon="7.16937">
        <ele>764</ele>
        <time>2010-08-08T14:29:23Z</time>
      </trkpt>
      <trkpt lat="48.52766" lon="7.16857">
        <ele>785</ele>
        <time>2010-08-08T14:30:39Z</time>
      </trkpt>
      <trkpt lat="48.52762" lon="7.16776">
        <ele>789</ele>
        <time>2010-08-08T14:32:37Z</time>
      </trkpt>
      <trkpt lat="48.52721" lon="7.16722">
        <ele>789</ele>
        <time>2010-08-08T14:32:57Z</time>
      </trkpt>
      <trkpt lat="48.52661" lon="7.1667">
        <ele>788</ele>
        <time>2010-08-08T14:33:13Z</time>
      </trkpt>
      <trkpt lat="48.52554" lon="7.16627">
        <ele>788</ele>
        <time>2010-08-08T14:33:34Z</time>
      </trkpt>
      <trkpt lat="48.52415" lon="7.16584">
        <ele>786</ele>
        <time>2010-08-08T14:33:57Z</time>
      </trkpt>
      <trkpt lat="48.52329" lon="7.16579">
        <ele>784</ele>
        <time>2010-08-08T14:34:09Z</time>
      </trkpt>
      <trkpt lat="48.52271" lon="7.16611">
        <ele>783</ele>
        <time>2010-08-08T14:34:18Z</time>
      </trkpt>
      <trkpt lat="48.52161" lon="7.16766">
        <ele>782</ele>
        <time>2010-08-08T14:34:38Z</time>
      </trkpt>
      <trkpt lat="48.52094" lon="7.16811">
        <ele>782</ele>
        <time>2010-08-08T14:34:49Z</time>
      </trkpt>
      <trkpt lat="48.52033" lon="7.16824">
        <ele>782</ele>
        <time>2010-08-08T14:34:58Z</time>
      </trkpt>
      <trkpt lat="48.51961" lon="7.16807">
        <ele>786</ele>
        <time>2010-08-08T14:35:10Z</time>
      </trkpt>
      <trkpt lat="48.51873" lon="7.16797">
        <ele>786</ele>
        <time>2010-08-08T14:35:21Z</time>
      </trkpt>
      <trkpt lat="48.51808" lon="7.16804">
        <ele>781</ele>
        <time>2010-08-08T14:35:30Z</time>
      </trkpt>
      <trkpt lat="48.51769" lon="7.16769">
        <ele>780</ele>
        <time>2010-08-08T14:35:37Z</time>
      </trkpt>
      <trkpt lat="48.51797" lon="7.1669">
        <ele>782</ele>
        <time>2010-08-08T14:35:46Z</time>
      </trkpt>
      <trkpt lat="48.51797" lon="7.16618">
        <ele>783</ele>
        <time>2010-08-08T14:35:53Z</time>
      </trkpt>
      <trkpt lat="48.51838" lon="7.16473">
        <ele>779</ele>
        <time>2010-08-08T14:36:06Z</time>
      </trkpt>
      <trkpt lat="48.51844" lon="7.16393">
        <ele>775</ele>
        <time>2010-08-08T14:36:12Z</time>
      </trkpt>
      <trkpt lat="48.51807" lon="7.16182">
        <ele>763</ele>
        <time>2010-08-08T14:36:28Z</time>
      </trkpt>
      <trkpt lat="48.51743" lon="7.16013">
        <ele>757</ele>
        <time>2010-08-08T14:36:44Z</time>
      </trkpt>
      <trkpt lat="48.51684" lon="7.15921">
        <ele>755</ele>
        <time>2010-08-08T14:36:56Z</time>
      </trkpt>
      <trkpt lat="48.51607" lon="7.1584">
        <ele>757</ele>
        <time>2010-08-08T14:37:12Z</time>
      </trkpt>
      <trkpt lat="48.51355" lon="7.15637">
        <ele>760</ele>
        <time>2010-08-08T14:38:08Z</time>
      </trkpt>
      <trkpt lat="48.51272" lon="7.15539">
        <ele>763</ele>
        <time>2010-08-08T14:38:28Z</time>
      </trkpt>
      <trkpt lat="48.5124" lon="7.15529">
        <ele>762</ele>
        <time>2010-08-08T14:38:34Z</time>
      </trkpt>
      <trkpt lat="48.51213" lon="7.15475">
        <ele>763</ele>
        <time>2010-08-08T14:38:42Z</time>
      </trkpt>
      <trkpt lat="48.51164" lon="7.15428">
        <ele>762</ele>
        <time>2010-08-08T14:38:52Z</time>
      </trkpt>
      <trkpt lat="48.51127" lon="7.1543">
        <ele>760</ele>
        <time>2010-08-08T14:38:58Z</time>
      </trkpt>
      <trkpt lat="48.51084" lon="7.15385">
        <ele>758</ele>
        <time>2010-08-08T14:39:07Z</time>
      </trkpt>
      <trkpt lat="48.51066" lon="7.15339">
        <ele>757</ele>
        <time>2010-08-08T14:39:13Z</time>
      </trkpt>
      <trkpt lat="48.50975" lon="7.15269">
        <ele>755</ele>
        <time>2010-08-08T14:39:27Z</time>
      </trkpt>
      <trkpt lat="48.50883" lon="7.15161">
        <ele>752</ele>
        <time>2010-08-08T14:39:49Z</time>
      </trkpt>
      <trkpt lat="48.50837" lon="7.15044">
        <ele>749</ele>
        <time>2010-08-08T14:40:03Z</time>
      </trkpt>
      <trkpt lat="48.50793" lon="7.14711">
        <ele>736</ele>
        <time>2010-08-08T14:40:30Z</time>
      </trkpt>
      <trkpt lat="48.50729" lon="7.14664">
        <ele>729</ele>
        <time>2010-08-08T14:40:36Z</time>
      </trkpt>
      <trkpt lat="48.50714" lon="7.14581">
        <ele>728</ele>
        <time>2010-08-08T14:40:42Z</time>
      </trkpt>
      <trkpt lat="48.50522" lon="7.14102">
        <ele>730</ele>
        <time>2010-08-08T14:40:54Z</time>
      </trkpt>
      <trkpt lat="48.50491" lon="7.13646">
        <ele>734</ele>
        <time>2010-08-08T14:43:47Z</time>
      </trkpt>
      <trkpt lat="48.50398" lon="7.13515">
        <ele>739</ele>
        <time>2010-08-08T14:45:34Z</time>
      </trkpt>
      <trkpt lat="48.49808" lon="7.13589">
        <ele>748</ele>
        <time>2010-08-08T14:45:50Z</time>
      </trkpt>
      <trkpt lat="48.49552" lon="7.13352">
        <ele>751</ele>
        <time>2010-08-08T14:47:24Z</time>
      </trkpt>
      <trkpt lat="48.4934" lon="7.1316">
        <ele>752</ele>
        <time>2010-08-08T14:47:30Z</time>
      </trkpt>
      <trkpt lat="48.49087" lon="7.13191">
        <ele>746</ele>
      </trkpt>
      <trkpt lat="48.48883" lon="7.12779">
        <ele>752</ele>
      </trkpt>
      <trkpt lat="48.48713" lon="7.12737">
        <ele>757</ele>
      </trkpt>
      <trkpt lat="48.48748" lon="7.12991">
        <ele>744</ele>
      </trkpt>
      <trkpt lat="48.48512" lon="7.12698">
        <ele>764</ele>
      </trkpt>
      <trkpt lat="48.48173" lon="7.12965">
        <ele>771</ele>
      </trkpt>
      <trkpt lat="48.48127" lon="7.12656">
        <ele>768</ele>
      </trkpt>
      <trkpt lat="48.48139" lon="7.1223">
        <ele>760</ele>
      </trkpt>
      <trkpt lat="48.47915" lon="7.11871">
        <ele>770</ele>
      </trkpt>
      <trkpt lat="48.4785" lon="7.11696">
        <ele>783</ele>
      </trkpt>
      <trkpt lat="48.47851" lon="7.10565">
        <ele>775</ele>
      </trkpt>
      <trkpt lat="48.47891" lon="7.10467">
        <ele>782</ele>
      </trkpt>
      <trkpt lat="48.47916" lon="7.09954">
        <ele>799</ele>
      </trkpt>
      <trkpt lat="48.47895" lon="7.09688">
        <ele>800</ele>
      </trkpt>
      <trkpt lat="48.47762" lon="7.09317">
        <ele>820</ele>
      </trkpt>
      <trkpt lat="48.47792" lon="7.08907">
        <ele>819</ele>
      </trkpt>
      <trkpt lat="48.47602" lon="7.0847">
        <ele>806</ele>
      </trkpt>
      <trkpt lat="48.47405" lon="7.07998">
        <ele>799</ele>
      </trkpt>
      <trkpt lat="48.47366" lon="7.07412">
        <ele>767</ele>
      </trkpt>
      <trkpt lat="48.47226" lon="7.07189">
        <ele>780</ele>
      </trkpt>
      <trkpt lat="48.4691" lon="7.06991">
        <ele>774</ele>
      </trkpt>
      <trkpt lat="48.46647" lon="7.06575">
        <ele>778</ele>
      </trkpt>
      <trkpt lat="48.46642" lon="7.06263">
        <ele>777</ele>
      </trkpt>
      <trkpt lat="48.46435" lon="7.0579">
        <ele>772</ele>
      </trkpt>
      <trkpt lat="48.46308" lon="7.05813">
        <ele>763</ele>
      </trkpt>
      <trkpt lat="48.46153" lon="7.0565">
        <ele>781</ele>
      </trkpt>
      <trkpt lat="48.45923" lon="7.05081">
        <ele>798</ele>
      </trkpt>
      <trkpt lat="48.45751" lon="7.04991">
        <ele>795</ele>
      </trkpt>
      <trkpt lat="48.45597" lon="7.04449">
        <ele>812</ele>
      </trkpt>
      <trkpt lat="48.45487" lon="7.03951">
        <ele>806</ele>
      </trkpt>
      <trkpt lat="48.44722" lon="7.02684">
        <ele>773</ele>
      </trkpt>
      <trkpt lat="48.44545" lon="7.02492">
        <ele>773</ele>
      </trkpt>
      <trkpt lat="48.44563" lon="7.02142">
        <ele>782</ele>
      </trkpt>
      <trkpt lat="48.44704" lon="7.01897">
        <ele>786</ele>
      </trkpt>
      <trkpt lat="48.44654" lon="7.01663">
        <ele>784</ele>
      </trkpt>
      <trkpt lat="48.44723" lon="7.01513">
        <ele>783</ele>
      </trkpt>
      <trkpt lat="48.44692" lon="7.01389">
        <ele>776</ele>
      </trkpt>
      <trkpt lat="48.44525" lon="7.01408">
        <ele>754</ele>
      </trkpt>
      <trkpt lat="48.44442" lon="7.01333">
        <ele>750</ele>
      </trkpt>
      <trkpt lat="48.44339" lon="7.01432">
        <ele>753</ele>
      </trkpt>
      <trkpt lat="48.44208" lon="7.01555">
        <ele>727</ele>
      </trkpt>
      <trkpt lat="48.44134" lon="7.01501">
        <ele>750</ele>
      </trkpt>
      <trkpt lat="48.44328" lon="7.01045">
        <ele>768</ele>
      </trkpt>
      <trkpt lat="48.4422" lon="7.00568">
        <ele>752</ele>
      </trkpt>
      <trkpt lat="48.4407" lon="7.00386">
        <ele>743</ele>
      </trkpt>
      <trkpt lat="48.43695" lon="7.00081">
        <ele>728</ele>
      </trkpt>
      <trkpt lat="48.43538" lon="6.99709">
        <ele>732</ele>
      </trkpt>
      <trkpt lat="48.43308" lon="6.996">
        <ele>695</ele>
      </trkpt>
      <trkpt lat="48.43169" lon="6.9948">
        <ele>689</ele>
      </trkpt>
      <trkpt lat="48.43005" lon="6.99519">
        <ele>680</ele>
      </trkpt>
      <trkpt lat="48.42776" lon="6.9939">
        <ele>680</ele>
      </trkpt>
      <trkpt lat="48.42576" lon="6.99109">
        <ele>665</ele>
      </trkpt>
      <trkpt lat="48.42516" lon="6.99151">
        <ele>640</ele>
      </trkpt>
      <trkpt lat="48.42338" lon="6.98986">
        <ele>609</ele>
      </trkpt>
      <trkpt lat="48.42259" lon="6.98932">
        <ele>599</ele>
      </trkpt>
      <trkpt lat="48.42099" lon="6.98992">
        <ele>547</ele>
      </trkpt>
      <trkpt lat="48.41964" lon="6.98878">
        <ele>536</ele>
      </trkpt>
      <trkpt lat="48.4196" lon="6.98628">
        <ele>533</ele>
      </trkpt>
      <trkpt lat="48.41779" lon="6.98524">
        <ele>487</ele>
      </trkpt>
      <trkpt lat="48.41865" lon="6.98639">
        <ele>486</ele>
      </trkpt>
      <trkpt lat="48.41842" lon="6.98989">
        <ele>468</ele>
      </trkpt>
      <trkpt lat="48.41976" lon="6.99238">
        <ele>462</ele>
      </trkpt>
      <trkpt lat="48.42071" lon="6.99463">
        <ele>433</ele>
      </trkpt>
      <trkpt lat="48.42188" lon="6.99798">
        <ele>413</ele>
      </trkpt>
      <trkpt lat="48.42167" lon="7.00121">
        <ele>409</ele>
      </trkpt>
      <trkpt lat="48.42135" lon="7.00348">
        <ele>399</ele>
        <time>2010-08-08T14:47:50Z</time>
      </trkpt>
    </trkseg>
  </trk>
</gpx>